Time;durP1;ratioP1;P1;durP2;ratioP2;P2;SDS_P1;SDS_P2;PMS_P1;PMS_P2;Temp;Humidity;BMP_temperature;BMP_pressure;BME280_temperature;BME280_humidity;BME280_pressure;Samples;Min_cycle;Max_cycle;Signal;HPM_P1;HPM_P2
2022/09/16 00:01:27;;;;;;;12.50;6.90;;;15.10;99.90;;;;;;4973660;28;20189;-66
2022/09/16 00:03:54;;;;;;;22.10;7.73;;;15.10;99.90;;;;;;4982054;28;20457;-66
2022/09/16 00:06:24;;;;;;;21.37;6.37;;;15.10;99.90;;;;;;4976437;28;20181;-66
2022/09/16 00:08:50;;;;;;;7.63;6.83;;;15.10;70.30;;;;;;4975799;28;20432;-66
2022/09/16 00:11:17;;;;;;;10.20;7.00;;;15.10;1.00;;;;;;4971220;28;20436;-67
2022/09/16 00:13:43;;;;;;;7.90;7.10;;;15.10;59.00;;;;;;4974660;28;20449;-67
2022/09/16 00:16:14;;;;;;;10.80;7.93;;;15.10;28.20;;;;;;4975777;28;20436;-66
2022/09/16 00:18:40;;;;;;;9.10;8.17;;;15.10;97.90;;;;;;4974415;28;20480;-66
2022/09/16 00:21:08;;;;;;;18.00;8.30;;;15.10;99.90;;;;;;4975881;28;20428;-67
2022/09/16 00:23:34;;;;;;;12.67;8.67;;;15.10;99.90;;;;;;4975036;28;20190;-66
2022/09/16 00:26:00;;;;;;;18.33;7.70;;;15.10;16.90;;;;;;4977748;28;20432;-67
2022/09/16 00:28:26;;;;;;;7.17;6.47;;;15.00;1.00;;;;;;4974284;28;20471;-66
2022/09/16 00:30:52;;;;;;;10.80;6.40;;;14.90;6.30;;;;;;4974696;28;20420;-66
2022/09/16 00:33:19;;;;;;;8.63;7.10;;;14.90;25.70;;;;;;4977319;28;20181;-67
2022/09/16 00:35:45;;;;;;;9.33;7.47;;;14.90;99.90;;;;;;4974412;28;20261;-66
2022/09/16 00:38:11;;;;;;;13.20;6.00;;;14.90;99.90;;;;;;4975290;28;20424;-66
2022/09/16 00:40:47;;;;;;;6.77;5.80;;;14.80;99.90;;;;;;4974155;28;20432;-66
2022/09/16 00:43:18;;;;;;;8.00;7.20;;;14.90;99.90;;;;;;4975277;28;20432;-67
2022/09/16 00:45:50;;;;;;;15.13;8.37;;;14.90;99.90;;;;;;4972137;28;20524;-67
2022/09/16 00:48:21;;;;;;;10.57;8.07;;;14.80;99.90;;;;;;4973426;28;20424;-66
2022/09/16 00:50:50;;;;;;;11.90;7.50;;;14.80;1.00;;;;;;4973519;28;20425;-66
2022/09/16 00:53:41;;;;;;;8.73;7.80;;;14.80;1.00;;;;;;4974617;28;20933;-67
2022/09/16 00:56:10;;;;;;;9.20;7.00;;;14.80;1.00;;;;;;4963795;28;20495;-66
2022/09/16 00:59:05;;;;;;;8.57;7.30;;;14.90;1.00;;;;;;4974639;28;20471;-67
2022/09/16 01:01:31;;;;;;;10.07;6.90;;;14.90;1.00;;;;;;4962381;28;20433;-66
2022/09/16 01:04:11;;;;;;;14.13;7.60;;;14.90;1.00;;;;;;4975719;28;20567;-67
2022/09/16 01:06:38;;;;;;;10.60;7.23;;;14.90;1.00;;;;;;4973669;28;20429;-66
2022/09/16 01:09:05;;;;;;;13.07;7.80;;;14.90;99.90;;;;;;4973620;28;20547;-67
2022/09/16 01:11:31;;;;;;;15.37;8.23;;;14.90;99.90;;;;;;4973684;28;20444;-67
2022/09/16 01:14:51;;;;;;;12.87;7.93;;;14.90;1.00;;;;;;4973952;28;20495;-67
2022/09/16 01:16:56;;;;;;;10.10;7.73;;;14.80;1.00;;;;;;4970448;28;20550;-67
2022/09/16 01:19:23;;;;;;;11.27;7.80;;;14.80;1.00;;;;;;4973060;28;20460;-67
2022/09/16 01:22:30;;;;;;;9.80;8.43;;;14.70;1.00;;;;;;4976015;28;20429;-67
2022/09/16 01:25:07;;;;;;;7.60;6.57;;;14.60;1.00;;;;;;4973391;28;20448;-67
2022/09/16 01:27:57;;;;;;;8.57;7.43;;;14.60;72.30;;;;;;4973443;28;20536;-67
2022/09/16 01:30:41;;;;;;;11.40;7.27;;;14.50;99.90;;;;;;4971359;28;20448;-67
2022/09/16 01:33:32;;;;;;;12.67;8.10;;;14.50;99.90;;;;;;4974070;28;20432;-67
2022/09/16 01:36:39;;;;;;;10.93;7.70;;;14.60;61.50;;;;;;4972721;28;20433;-67
2022/09/16 01:39:18;;;;;;;7.80;7.03;;;14.50;99.90;;;;;;4958063;28;20468;-67
2022/09/16 01:42:09;;;;;;;11.03;7.90;;;14.50;99.90;;;;;;4970416;28;20423;-67
2022/09/16 01:44:52;;;;;;;15.37;8.17;;;14.50;99.90;;;;;;4972785;28;20507;-67
2022/09/16 01:47:37;;;;;;;8.37;6.93;;;14.50;99.90;;;;;;4972349;28;20806;-67
2022/09/16 01:50:16;;;;;;;11.07;7.90;;;14.50;99.90;;;;;;4974070;28;20946;-67
2022/09/16 01:52:48;;;;;;;7.53;6.80;;;14.40;99.90;;;;;;4969762;28;20516;-67
2022/09/16 01:55:31;;;;;;;8.30;6.77;;;14.40;99.90;;;;;;4973754;28;20939;-67
2022/09/16 01:58:26;;;;;;;10.50;7.37;;;14.40;99.90;;;;;;4977869;28;20812;-67
2022/09/16 02:00:58;;;;;;;10.80;7.93;;;14.40;99.90;;;;;;4980903;28;20432;-67
2022/09/16 02:03:29;;;;;;;14.30;7.23;;;14.40;99.90;;;;;;4973873;28;21017;-65
2022/09/16 02:06:07;;;;;;;9.30;7.00;;;14.40;99.90;;;;;;4973720;28;20433;-65
2022/09/16 02:09:00;;;;;;;31.33;8.73;;;14.40;99.90;;;;;;4971271;28;20487;-66
2022/09/16 02:11:26;;;;;;;7.97;7.10;;;14.40;99.90;;;;;;4963707;28;20440;-66
2022/09/16 02:14:05;;;;;;;8.67;7.83;;;14.40;99.90;;;;;;4972927;28;20452;-66
2022/09/16 02:16:52;;;;;;;7.50;6.70;;;14.40;99.90;;;;;;4973047;28;20177;-66
2022/09/16 02:19:26;;;;;;;9.50;7.23;;;14.40;99.90;;;;;;4975066;28;20471;-66
2022/09/16 02:21:53;;;;;;;7.57;6.87;;;14.40;99.90;;;;;;4971996;28;21164;-66
2022/09/16 02:24:20;;;;;;;9.33;6.57;;;14.50;99.90;;;;;;4971929;28;20455;-65
2022/09/16 02:26:59;;;;;;;12.07;7.93;;;14.50;99.90;;;;;;4971632;28;20425;-66
2022/09/16 02:29:29;;;;;;;9.03;7.50;;;14.60;99.90;;;;;;4970154;28;20432;-66
2022/09/16 02:31:59;;;;;;;12.53;7.33;;;14.60;99.90;;;;;;4971887;28;20429;-66
2022/09/16 02:34:35;;;;;;;10.17;6.67;;;14.60;99.90;;;;;;4972623;28;20460;-66
2022/09/16 02:37:07;;;;;;;11.63;7.70;;;14.50;99.90;;;;;;4972508;28;20435;-66
2022/09/16 02:39:38;;;;;;;8.77;7.10;;;14.50;99.90;;;;;;4972403;28;20467;-66
2022/09/16 02:42:05;;;;;;;9.90;7.57;;;14.50;99.90;;;;;;4972785;28;20479;-67
2022/09/16 02:44:31;;;;;;;8.80;7.20;;;14.40;99.90;;;;;;4972819;28;20874;-67
2022/09/16 02:47:08;;;;;;;16.10;8.37;;;14.40;99.90;;;;;;4971538;28;20464;-66
2022/09/16 02:50:06;;;;;;;8.43;7.33;;;14.50;99.90;;;;;;4973405;28;20432;-67
2022/09/16 02:52:56;;;;;;;10.33;7.20;;;14.50;99.90;;;;;;4971038;28;20439;-67
2022/09/16 02:55:54;;;;;;;12.10;7.90;;;14.60;99.90;;;;;;4971580;28;20460;-66
2022/09/16 02:58:20;;;;;;;8.00;7.20;;;14.60;96.00;;;;;;4933459;28;20447;-66
2022/09/16 03:00:50;;;;;;;10.40;7.50;;;14.50;99.90;;;;;;4971413;28;20484;-66
2022/09/16 03:03:17;;;;;;;10.70;8.27;;;14.60;32.20;;;;;;4970985;28;20429;-66
2022/09/16 03:06:10;;;;;;;8.97;7.00;;;14.50;99.90;;;;;;4971673;28;20571;-66
2022/09/16 03:08:37;;;;;;;8.43;7.53;;;14.40;99.90;;;;;;4970844;28;20440;-66
2022/09/16 03:11:25;;;;;;;10.50;8.17;;;14.40;99.90;;;;;;4971730;28;20547;-66
2022/09/16 03:13:57;;;;;;;9.30;8.40;;;14.30;99.90;;;;;;4969130;28;20457;-65
2022/09/16 03:16:45;;;;;;;17.80;9.63;;;14.30;99.90;;;;;;4970758;28;20536;-65
2022/09/16 03:19:29;;;;;;;10.60;7.63;;;14.30;99.90;;;;;;4970438;28;20560;-66
2022/09/16 03:21:57;;;;;;;9.10;8.10;;;14.30;99.90;;;;;;4971093;28;20440;-66
2022/09/16 03:24:41;;;;;;;10.33;7.90;;;14.30;99.90;;;;;;4971165;28;20452;-66
2022/09/16 03:27:11;;;;;;;16.73;8.73;;;14.30;99.90;;;;;;4971337;28;20437;-65
2022/09/16 03:29:48;;;;;;;17.77;9.07;;;14.30;99.90;;;;;;4971407;28;20512;-66
2022/09/16 03:32:24;;;;;;;14.77;8.17;;;14.30;99.90;;;;;;4970431;28;20433;-66
2022/09/16 03:34:51;;;;;;;15.80;9.10;;;14.30;99.90;;;;;;4968012;28;20491;-66
2022/09/16 03:37:19;;;;;;;12.83;10.27;;;14.20;99.90;;;;;;4970746;28;20489;-66
2022/09/16 03:39:52;;;;;;;20.83;10.30;;;14.10;1.00;;;;;;4971394;28;20519;-66
2022/09/16 03:42:19;;;;;;;21.47;10.87;;;14.10;1.00;;;;;;4971013;28;20507;-66
2022/09/16 03:44:44;;;;;;;16.90;10.10;;;14.20;1.00;;;;;;4971266;28;20460;-66
2022/09/16 03:47:10;;;;;;;13.90;9.73;;;14.20;1.00;;;;;;4971417;28;20420;-66
2022/09/16 03:49:37;;;;;;;13.43;8.27;;;14.20;1.00;;;;;;4971993;28;20208;-66
2022/09/16 03:52:04;;;;;;;9.60;7.97;;;14.30;99.90;;;;;;4970981;28;20177;-66
2022/09/16 03:54:31;;;;;;;11.90;8.37;;;14.40;99.90;;;;;;4970009;28;20501;-65
2022/09/16 03:56:57;;;;;;;16.30;9.67;;;14.40;99.90;;;;;;4971067;28;20441;-65
2022/09/16 03:59:22;;;;;;;13.57;9.03;;;14.50;99.90;;;;;;4972188;28;20801;-65
2022/09/16 04:01:48;;;;;;;9.17;8.27;;;14.40;99.90;;;;;;4971028;28;20507;-67
2022/09/16 04:04:14;;;;;;;9.83;8.37;;;14.40;99.90;;;;;;4971493;28;20205;-65
2022/09/16 04:06:40;;;;;;;14.97;8.63;;;14.40;99.90;;;;;;4967367;28;20655;-65
2022/09/16 04:09:07;;;;;;;15.30;8.43;;;14.40;99.90;;;;;;4971379;28;20489;-65
2022/09/16 04:11:34;;;;;;;14.33;9.27;;;14.50;99.90;;;;;;4971176;28;20182;-65
2022/09/16 04:14:00;;;;;;;25.60;10.67;;;14.50;99.90;;;;;;4970902;28;20460;-66
2022/09/16 04:16:26;;;;;;;17.93;8.97;;;14.50;99.90;;;;;;4970465;28;20439;-66
2022/09/16 04:18:52;;;;;;;15.07;8.67;;;14.50;99.90;;;;;;4969751;28;20456;-66
2022/09/16 04:21:18;;;;;;;15.10;10.20;;;14.50;99.90;;;;;;4970324;28;21202;-66
2022/09/16 04:23:44;;;;;;;21.33;8.70;;;14.50;99.90;;;;;;4971185;28;20452;-65
2022/09/16 04:26:10;;;;;;;11.30;7.90;;;14.50;99.90;;;;;;4970430;28;20177;-66
2022/09/16 04:28:36;;;;;;;12.10;9.00;;;14.50;99.90;;;;;;4965128;28;20440;-66
2022/09/16 04:31:04;;;;;;;11.90;7.93;;;14.50;99.90;;;;;;4964891;28;20425;-66
2022/09/16 04:33:32;;;;;;;13.20;9.03;;;14.40;99.90;;;;;;4968590;28;20484;-66
2022/09/16 04:36:03;;;;;;;13.57;7.73;;;14.40;99.90;;;;;;4966196;28;20460;-66
2022/09/16 04:38:29;;;;;;;12.90;9.20;;;14.40;99.90;;;;;;4965352;28;20468;-66
2022/09/16 04:41:12;;;;;;;15.17;8.70;;;14.50;99.90;;;;;;4969365;28;20813;-66
2022/09/16 04:43:38;;;;;;;14.00;9.00;;;14.50;99.90;;;;;;4969149;28;20308;-66
2022/09/16 04:46:05;;;;;;;9.50;8.07;;;14.50;99.90;;;;;;4965388;28;20440;-66
2022/09/16 04:48:32;;;;;;;11.50;8.67;;;14.50;99.90;;;;;;4971050;28;20460;-66
2022/09/16 04:51:06;;;;;;;18.07;9.03;;;14.50;99.90;;;;;;4972936;28;20452;-66
2022/09/16 04:53:32;;;;;;;9.83;8.03;;;14.50;99.90;;;;;;4973244;28;20785;-66
2022/09/16 04:56:14;;;;;;;15.93;8.53;;;14.40;99.90;;;;;;4973299;28;20788;-66
2022/09/16 04:58:44;;;;;;;13.30;8.10;;;14.40;99.90;;;;;;4972129;28;20516;-66
2022/09/16 05:01:12;;;;;;;11.20;9.10;;;14.50;99.90;;;;;;4971852;28;20421;-65
2022/09/16 05:03:49;;;;;;;13.27;9.30;;;14.50;99.90;;;;;;4970372;28;20448;-65
2022/09/16 05:06:20;;;;;;;15.27;10.40;;;14.60;99.90;;;;;;4971511;28;20480;-65
2022/09/16 05:08:47;;;;;;;19.60;9.60;;;14.60;99.90;;;;;;4975065;28;20429;-65
2022/09/16 05:11:17;;;;;;;16.50;9.37;;;14.70;99.90;;;;;;4972904;28;20460;-65
2022/09/16 05:13:43;;;;;;;20.33;8.80;;;14.60;99.90;;;;;;4971032;28;20453;-65
2022/09/16 05:16:11;;;;;;;18.30;9.43;;;14.60;99.90;;;;;;4974117;28;20523;-66
2022/09/16 05:18:38;;;;;;;22.70;10.40;;;14.60;99.90;;;;;;4974954;28;20465;-66
2022/09/16 05:21:07;;;;;;;32.03;11.93;;;14.60;99.90;;;;;;4972715;28;20536;-66
2022/09/16 05:23:33;;;;;;;17.50;10.60;;;14.70;1.00;;;;;;4974010;28;20512;-65
2022/09/16 05:26:03;;;;;;;11.90;10.00;;;14.70;1.00;;;;;;4969610;28;20520;-65
2022/09/16 05:28:29;;;;;;;18.33;11.13;;;14.70;1.00;;;;;;4965167;28;20199;-67
2022/09/16 05:30:54;;;;;;;16.03;10.40;;;14.70;1.00;;;;;;4971483;28;20433;-67
2022/09/16 05:33:20;;;;;;;10.70;9.70;;;14.70;1.00;;;;;;4973300;28;20917;-66
2022/09/16 05:35:46;;;;;;;10.93;9.47;;;14.70;1.00;;;;;;4969923;28;20178;-67
2022/09/16 05:38:12;;;;;;;10.67;8.77;;;14.60;1.00;;;;;;4971018;28;20193;-66
2022/09/16 05:40:38;;;;;;;9.27;8.30;;;14.60;1.00;;;;;;4968285;28;20209;-66
2022/09/16 05:43:04;;;;;;;11.43;8.87;;;14.50;1.00;;;;;;4969366;28;20440;-66
2022/09/16 05:45:30;;;;;;;19.27;9.40;;;14.40;1.00;;;;;;4973949;28;20469;-65
2022/09/16 05:47:56;;;;;;;12.30;10.17;;;14.40;1.00;;;;;;4966582;28;20185;-66
2022/09/16 05:50:21;;;;;;;11.27;9.60;;;14.40;1.00;;;;;;4972610;28;20189;-66
2022/09/16 05:52:47;;;;;;;9.77;8.87;;;14.40;1.00;;;;;;4969824;28;20635;-66
2022/09/16 05:55:13;;;;;;;11.97;10.17;;;14.30;1.00;;;;;;4967907;28;20205;-66
2022/09/16 05:57:38;;;;;;;11.67;9.23;;;14.30;1.00;;;;;;4963980;28;20575;-67
2022/09/16 06:00:05;;;;;;;17.97;11.50;;;14.30;1.00;;;;;;4965195;28;20206;-67
2022/09/16 06:02:31;;;;;;;19.43;9.80;;;14.30;1.00;;;;;;4968278;28;20195;-67
2022/09/16 06:04:57;;;;;;;16.10;10.47;;;14.40;1.00;;;;;;4966190;28;20452;-68
2022/09/16 06:07:23;;;;;;;11.40;10.33;;;14.40;1.00;;;;;;4964481;28;21070;-67
2022/09/16 06:09:49;;;;;;;11.90;10.13;;;14.40;1.00;;;;;;4961619;28;20445;-67
2022/09/16 06:12:14;;;;;;;11.87;10.50;;;14.40;1.00;;;;;;4967529;28;20189;-66
2022/09/16 06:14:40;;;;;;;16.40;9.97;;;14.50;1.00;;;;;;4964038;28;20565;-66
2022/09/16 06:17:06;;;;;;;16.00;10.83;;;14.60;1.00;;;;;;4967964;28;20264;-67
2022/09/16 06:19:31;;;;;;;11.87;9.30;;;14.70;1.00;;;;;;4967531;28;20209;-67
2022/09/16 06:21:57;;;;;;;11.50;10.10;;;14.80;1.00;;;;;;4966295;28;20812;-67
2022/09/16 06:24:23;;;;;;;15.50;10.10;;;14.70;1.00;;;;;;4968920;28;21071;-66
2022/09/16 06:26:49;;;;;;;16.20;11.13;;;14.60;1.00;;;;;;4962769;28;20201;-67
2022/09/16 06:29:15;;;;;;;18.70;10.67;;;14.50;1.00;;;;;;4965443;28;20332;-67
2022/09/16 06:31:41;;;;;;;15.50;10.70;;;14.60;1.00;;;;;;4964809;28;20281;-67
2022/09/16 06:34:12;;;;;;;13.03;9.50;;;14.70;1.00;;;;;;4965859;28;20875;-66
2022/09/16 06:36:38;;;;;;;26.30;12.63;;;15.10;1.00;;;;;;4962140;28;20523;-66
2022/09/16 06:39:05;;;;;;;17.83;10.20;;;15.20;1.00;;;;;;4964432;28;21299;-66
2022/09/16 06:41:35;;;;;;;14.53;10.40;;;15.40;99.90;;;;;;4967808;28;20685;-66
2022/09/16 06:44:01;;;;;;;13.30;10.73;;;15.50;99.90;;;;;;4968575;28;20469;-67
2022/09/16 06:46:27;;;;;;;20.40;11.47;;;15.40;99.90;;;;;;4968948;28;20440;-68
2022/09/16 06:48:55;;;;;;;11.87;9.60;;;15.30;99.90;;;;;;4966305;28;20441;-67
2022/09/16 06:51:25;;;;;;;15.43;9.47;;;15.30;99.90;;;;;;4968176;28;20443;-67
2022/09/16 06:53:52;;;;;;;34.77;12.63;;;15.40;99.90;;;;;;4966918;28;20499;-67
2022/09/16 06:56:20;;;;;;;15.30;9.57;;;15.50;99.90;;;;;;4968612;28;20528;-67
2022/09/16 06:58:48;;;;;;;37.17;11.87;;;15.50;99.90;;;;;;4967528;28;21154;-67
2022/09/16 07:01:19;;;;;;;22.90;11.97;;;15.50;99.90;;;;;;4967321;28;20436;-67
2022/09/16 07:03:48;;;;;;;13.53;10.83;;;15.40;99.90;;;;;;4967738;28;20460;-68
2022/09/16 07:06:16;;;;;;;19.87;12.50;;;15.40;99.90;;;;;;4967923;28;20786;-67
2022/09/16 07:08:42;;;;;;;15.33;10.67;;;15.40;99.90;;;;;;4966950;28;20437;-67
2022/09/16 07:11:20;;;;;;;16.57;11.20;;;15.30;99.90;;;;;;4966692;28;20437;-68
2022/09/16 07:13:47;;;;;;;29.87;12.10;;;15.20;1.00;;;;;;4973166;28;20468;-68
2022/09/16 07:16:16;;;;;;;16.43;10.57;;;15.10;1.00;;;;;;4972178;28;20444;-67
2022/09/16 07:18:42;;;;;;;37.47;12.47;;;15.20;1.00;;;;;;4973340;28;20562;-68
2022/09/16 07:21:13;;;;;;;24.90;10.53;;;15.40;1.00;;;;;;4967493;28;20440;-68
2022/09/16 07:23:40;;;;;;;16.30;10.73;;;15.40;1.00;;;;;;4967300;28;20966;-68
2022/09/16 07:26:10;;;;;;;33.40;12.43;;;15.40;99.90;;;;;;4966671;28;20432;-67
2022/09/16 07:28:37;;;;;;;16.67;11.50;;;15.20;1.00;;;;;;4965190;28;20451;-67
2022/09/16 07:31:09;;;;;;;25.43;12.23;;;15.30;1.00;;;;;;4965720;28;20464;-68
2022/09/16 07:33:37;;;;;;;35.03;11.20;;;15.40;1.00;;;;;;4966969;28;20500;-68
2022/09/16 07:36:04;;;;;;;19.97;10.30;;;15.20;1.00;;;;;;4968219;28;20926;-67
2022/09/16 07:38:30;;;;;;;29.80;13.03;;;15.20;1.00;;;;;;4966816;28;20469;-68
2022/09/16 07:41:04;;;;;;;18.93;11.33;;;15.30;1.00;;;;;;4965227;28;20459;-68
2022/09/16 07:43:29;;;;;;;15.37;11.40;;;15.40;1.00;;;;;;4966877;28;20432;-68
2022/09/16 07:45:56;;;;;;;12.30;10.90;;;15.40;1.00;;;;;;4967532;28;21088;-67
2022/09/16 07:48:22;;;;;;;15.90;11.80;;;15.20;1.00;;;;;;4967142;28;20302;-67
2022/09/16 07:50:59;;;;;;;12.60;10.90;;;15.30;1.00;;;;;;4966785;28;20436;-69
2022/09/16 07:53:28;;;;;;;14.87;11.50;;;15.40;1.00;;;;;;4966498;28;20220;-68
2022/09/16 07:55:54;;;;;;;13.70;12.33;;;15.30;1.00;;;;;;4966083;28;20941;-69
2022/09/16 07:58:20;;;;;;;23.70;13.93;;;15.30;1.00;;;;;;4963517;28;20433;-69
2022/09/16 08:00:48;;;;;;;16.97;12.10;;;15.20;1.00;;;;;;4967303;28;20432;-66
2022/09/16 08:03:14;;;;;;;13.77;11.63;;;15.20;1.00;;;;;;4965949;28;20659;-66
2022/09/16 08:05:41;;;;;;;16.20;12.43;;;15.30;1.00;;;;;;4967620;28;20425;-68
2022/09/16 08:08:06;;;;;;;12.77;10.40;;;15.30;1.00;;;;;;4970998;28;20472;-65
2022/09/16 08:10:33;;;;;;;16.43;12.60;;;15.40;1.00;;;;;;4970198;28;20489;-67
2022/09/16 08:12:59;;;;;;;15.07;12.73;;;15.40;1.00;;;;;;4969946;28;20264;-66
2022/09/16 08:15:27;;;;;;;14.20;11.67;;;15.20;1.00;;;;;;4975904;28;20591;-67
2022/09/16 08:17:53;;;;;;;17.10;11.23;;;15.10;1.00;;;;;;4971771;28;20273;-66
2022/09/16 08:20:19;;;;;;;16.73;10.87;;;14.90;1.00;;;;;;4970872;28;20468;-67
2022/09/16 08:22:45;;;;;;;13.73;12.23;;;14.80;1.00;;;;;;4969834;28;20185;-67
2022/09/16 08:25:10;;;;;;;13.90;11.10;;;14.70;1.00;;;;;;4969148;28;20449;-67
2022/09/16 08:27:36;;;;;;;25.00;12.23;;;14.80;1.00;;;;;;4967456;28;20678;-67
2022/09/16 08:30:04;;;;;;;29.93;12.10;;;14.80;1.00;;;;;;4969078;28;20533;-67
2022/09/16 08:32:30;;;;;;;23.20;13.33;;;14.90;1.00;;;;;;4970930;28;20445;-67
2022/09/16 08:34:56;;;;;;;13.60;10.60;;;14.90;1.00;;;;;;4968354;28;20483;-66
2022/09/16 08:37:22;;;;;;;15.23;9.90;;;14.80;1.00;;;;;;4967728;28;20432;-66
2022/09/16 08:39:48;;;;;;;19.03;8.90;;;14.60;1.00;;;;;;4972081;28;20532;-66
2022/09/16 08:42:33;;;;;;;19.90;7.97;;;14.60;1.00;;;;;;4968915;28;20428;-65
2022/09/16 08:45:23;;;;;;;9.43;5.30;;;14.60;99.90;;;;;;4965897;28;20216;-67
2022/09/16 08:48:28;;;;;;;9.77;4.67;;;14.40;99.90;;;;;;4971333;28;20786;-67
2022/09/16 08:50:57;;;;;;;6.60;5.30;;;14.40;1.00;;;;;;4968337;28;20432;-67
2022/09/16 08:53:51;;;;;;;6.23;5.63;;;14.50;99.90;;;;;;4971657;28;20944;-67
2022/09/16 08:56:21;;;;;;;5.97;5.23;;;14.40;99.90;;;;;;4970651;28;20437;-66
2022/09/16 08:58:53;;;;;;;8.40;4.60;;;14.20;99.90;;;;;;4973089;28;20467;-67
2022/09/16 09:01:26;;;;;;;11.63;5.30;;;14.20;1.00;;;;;;4969738;28;20451;-66
2022/09/16 09:03:52;;;;;;;7.80;4.27;;;14.30;1.00;;;;;;4972256;28;20578;-67
2022/09/16 09:06:58;;;;;;;7.20;3.90;;;14.40;99.90;;;;;;4971962;28;20425;-67
2022/09/16 09:10:16;;;;;;;7.10;4.50;;;14.30;99.90;;;;;;4962490;28;20473;-69
2022/09/16 09:12:59;;;;;;;6.07;5.33;;;14.40;99.90;;;;;;4952818;28;20437;-67
2022/09/16 09:15:42;;;;;;;7.83;4.87;;;14.20;99.90;;;;;;4972960;28;20457;-66
2022/09/16 09:18:30;;;;;;;44.10;10.47;;;14.10;99.90;;;;;;4972001;28;20435;-67
2022/09/16 09:21:12;;;;;;;6.80;4.60;;;14.20;1.00;;;;;;4967251;28;20568;-66
2022/09/16 09:24:20;;;;;;;21.93;6.03;;;14.10;1.00;;;;;;4969097;28;20459;-67
2022/09/16 09:27:26;;;;;;;12.10;4.60;;;14.20;1.00;;;;;;4970002;28;20476;-68
2022/09/16 09:30:24;;;;;;;6.37;2.90;;;14.20;1.00;;;;;;4954989;28;20436;-67
2022/09/16 09:32:59;;;;;;;5.10;3.33;;;14.00;99.90;;;;;;4959776;28;20533;-66
2022/09/16 09:36:02;;;;;;;4.07;3.13;;;14.10;99.90;;;;;;4971098;28;20472;-68
2022/09/16 09:38:39;;;;;;;9.10;4.00;;;14.00;99.90;;;;;;4972664;28;20790;-66
2022/09/16 09:41:11;;;;;;;3.50;2.50;;;14.00;1.00;;;;;;4967006;28;20436;-68
2022/09/16 09:43:47;;;;;;;3.43;2.80;;;13.90;99.90;;;;;;4968151;28;20457;-66
2022/09/16 09:46:30;;;;;;;3.83;2.93;;;13.80;1.00;;;;;;4968059;28;20483;-67
2022/09/16 09:49:07;;;;;;;4.90;3.07;;;13.70;99.90;;;;;;4974052;28;20471;-67
2022/09/16 09:51:41;;;;;;;32.03;6.47;;;13.70;1.00;;;;;;4971350;28;20425;-67
2022/09/16 09:54:40;;;;;;;54.17;6.67;;;13.80;1.00;;;;;;4973129;28;20448;-67
2022/09/16 09:57:26;;;;;;;29.33;5.63;;;14.00;1.00;;;;;;4926073;28;20445;-67
2022/09/16 10:00:16;;;;;;;10.10;4.20;;;14.20;1.00;;;;;;4936114;28;20460;-67
2022/09/16 10:02:44;;;;;;;29.93;9.40;;;14.20;1.00;;;;;;4966083;28;20704;-67
2022/09/16 10:05:27;;;;;;;21.80;5.57;;;14.20;1.00;;;;;;4970394;28;21081;-67
2022/09/16 10:08:22;;;;;;;6.30;3.27;;;14.30;1.00;;;;;;4970883;28;20457;-72
2022/09/16 10:10:54;;;;;;;7.60;2.80;;;14.20;99.90;;;;;;4964626;28;20953;-68
2022/09/16 10:13:21;;;;;;;5.90;2.60;;;14.10;1.00;;;;;;4973799;28;20440;-68
2022/09/16 10:15:48;;;;;;;6.13;2.80;;;14.20;1.00;;;;;;4970558;28;20439;-67
2022/09/16 10:18:28;;;;;;;9.47;3.77;;;14.30;1.00;;;;;;4967901;28;20921;-67
2022/09/16 10:21:06;;;;;;;4.33;3.03;;;14.50;99.90;;;;;;4971677;28;20467;-67
2022/09/16 10:23:33;;;;;;;7.93;2.83;;;14.50;99.90;;;;;;4972295;28;20461;-67
2022/09/16 10:26:07;;;;;;;6.43;3.03;;;14.50;99.90;;;;;;4971794;28;20425;-67
2022/09/16 10:28:33;;;;;;;4.30;3.00;;;14.50;99.90;;;;;;4969451;28;20531;-66
2022/09/16 10:31:00;;;;;;;4.67;3.60;;;14.50;99.90;;;;;;4968231;28;20441;-67
2022/09/16 10:33:41;;;;;;;5.57;2.83;;;14.50;99.90;;;;;;4973832;28;21011;-65
2022/09/16 10:36:10;;;;;;;4.00;2.70;;;14.40;99.90;;;;;;4972560;28;20437;-66
2022/09/16 10:38:39;;;;;;;2.53;2.33;;;14.30;99.90;;;;;;4969270;28;20433;-68
2022/09/16 10:41:16;;;;;;;3.47;3.17;;;14.30;99.90;;;;;;4968909;28;20489;-66
2022/09/16 10:43:57;;;;;;;3.40;2.93;;;14.20;99.90;;;;;;4966865;28;20459;-67
2022/09/16 10:46:23;;;;;;;11.90;4.50;;;14.20;1.00;;;;;;4966279;28;20433;-65
2022/09/16 10:48:53;;;;;;;3.73;2.70;;;14.30;1.00;;;;;;4969853;28;20883;-67
2022/09/16 10:51:32;;;;;;;27.00;4.60;;;14.40;99.90;;;;;;4963700;28;20440;-67
2022/09/16 10:54:00;;;;;;;6.10;2.70;;;14.40;99.90;;;;;;4964263;28;20548;-64
2022/09/16 10:56:32;;;;;;;2.93;2.63;;;14.50;99.90;;;;;;4970098;28;20460;-68
2022/09/16 10:59:08;;;;;;;3.90;3.07;;;14.40;99.90;;;;;;4971832;28;20468;-66
2022/09/16 11:01:59;;;;;;;13.60;4.43;;;14.20;99.90;;;;;;4968162;28;20442;-66
2022/09/16 11:04:36;;;;;;;21.47;5.20;;;14.30;99.90;;;;;;4961789;28;20449;-66
2022/09/16 11:07:38;;;;;;;4.60;2.90;;;14.50;73.50;;;;;;4968449;28;20957;-67
2022/09/16 11:10:23;;;;;;;13.70;3.33;;;14.60;30.60;;;;;;4960584;28;20429;-67
2022/09/16 11:13:30;;;;;;;30.37;5.83;;;14.70;1.00;;;;;;4970736;28;20433;-67
2022/09/16 11:16:23;;;;;;;17.20;4.90;;;14.90;99.90;;;;;;4964861;28;20444;-67
2022/09/16 11:19:13;;;;;;;16.27;4.43;;;15.10;99.90;;;;;;4964283;28;20460;-67
2022/09/16 11:21:56;;;;;;;5.00;3.63;;;15.20;99.90;;;;;;4969232;28;20459;-67
2022/09/16 11:24:22;;;;;;;10.73;3.60;;;15.10;5.50;;;;;;4970034;28;20532;-67
2022/09/16 11:27:18;;;;;;;4.03;3.23;;;15.00;1.00;;;;;;4971024;28;20507;-68
2022/09/16 11:30:05;;;;;;;9.30;4.73;;;15.10;51.80;;;;;;4975977;28;20302;-67
2022/09/16 11:32:59;;;;;;;8.00;4.90;;;15.20;99.90;;;;;;4970009;28;20947;-67
2022/09/16 11:35:31;;;;;;;14.10;5.97;;;15.20;1.00;;;;;;4968475;28;20457;-68
2022/09/16 11:38:23;;;;;;;16.23;5.77;;;15.30;1.00;;;;;;4966231;28;20960;-68
2022/09/16 11:40:55;;;;;;;13.07;4.73;;;15.50;1.00;;;;;;4967157;28;21339;-68
2022/09/16 11:43:43;;;;;;;94.47;14.20;;;15.40;1.00;;;;;;4968112;28;20516;-68
2022/09/16 11:46:25;;;;;;;38.87;7.67;;;15.30;1.00;;;;;;4966247;28;20603;-68
2022/09/16 11:48:51;;;;;;;13.27;7.20;;;15.40;1.00;;;;;;4969360;28;20421;-66
2022/09/16 11:51:46;;;;;;;26.47;7.30;;;15.40;73.60;;;;;;4968053;28;20428;-67
2022/09/16 11:54:28;;;;;;;51.40;8.10;;;15.40;1.00;;;;;;4955428;28;20944;-68
2022/09/16 11:57:02;;;;;;;17.57;5.37;;;15.40;1.00;;;;;;4969688;28;20421;-68
2022/09/16 12:00:00;;;;;;;21.87;5.20;;;15.30;1.00;;;;;;4968775;28;20464;-68
2022/09/16 12:03:00;;;;;;;38.20;7.47;;;15.40;1.00;;;;;;4962827;28;20429;-67
2022/09/16 12:05:32;;;;;;;7.03;4.50;;;15.50;3.30;;;;;;4967653;28;20445;-67
2022/09/16 12:08:21;;;;;;;7.03;3.73;;;15.60;99.90;;;;;;4967271;28;20433;-68
2022/09/16 12:10:54;;;;;;;13.53;5.80;;;15.60;1.00;;;;;;4968329;28;20945;-68
2022/09/16 12:13:37;;;;;;;26.93;6.53;;;15.60;99.90;;;;;;4969551;28;20425;-68
2022/09/16 12:16:12;;;;;;;18.87;5.53;;;15.80;1.70;;;;;;4967347;28;21097;-68
2022/09/16 12:18:46;;;;;;;48.47;7.10;;;15.80;99.90;;;;;;4967741;28;20914;-68
2022/09/16 12:21:24;;;;;;;14.87;4.73;;;16.00;99.90;;;;;;4968151;28;20431;-68
2022/09/16 12:24:14;;;;;;;21.80;5.90;;;16.10;1.00;;;;;;4976439;28;20861;-67
2022/09/16 12:27:00;;;;;;;29.30;6.37;;;16.20;1.00;;;;;;4972508;28;20429;-67
2022/09/16 12:29:45;;;;;;;7.23;4.40;;;16.20;99.90;;;;;;4969179;28;20432;-67
2022/09/16 12:32:20;;;;;;;30.63;6.30;;;16.30;99.90;;;;;;4967665;28;20432;-67
2022/09/16 12:34:54;;;;;;;27.47;7.00;;;16.10;1.00;;;;;;4968737;28;20609;-67
2022/09/16 12:37:31;;;;;;;22.53;7.80;;;16.20;1.00;;;;;;4967651;28;20543;-67
2022/09/16 12:39:58;;;;;;;18.53;4.63;;;16.20;1.00;;;;;;4966988;28;20475;-67
2022/09/16 12:42:29;;;;;;;26.37;6.47;;;16.10;1.00;;;;;;4969839;28;20432;-67
2022/09/16 12:45:21;;;;;;;26.13;7.17;;;16.10;1.00;;;;;;4967939;28;20464;-69
2022/09/16 12:48:04;;;;;;;16.60;5.47;;;16.10;1.00;;;;;;4971782;28;20525;-67
2022/09/16 12:51:04;;;;;;;39.57;7.07;;;16.20;1.00;;;;;;4967675;28;20428;-67
2022/09/16 12:53:36;;;;;;;32.27;5.53;;;16.10;1.00;;;;;;4968830;28;20778;-68
2022/09/16 12:56:04;;;;;;;25.30;7.00;;;16.10;1.00;;;;;;4970198;28;20803;-68
2022/09/16 12:59:04;;;;;;;25.40;6.13;;;16.00;1.00;;;;;;4968023;28;20425;-67
2022/09/16 13:01:34;;;;;;;6.40;4.03;;;16.10;1.00;;;;;;4970760;28;20451;-69
2022/09/16 13:04:17;;;;;;;14.17;5.00;;;15.90;1.00;;;;;;4967979;28;20459;-68
2022/09/16 13:06:49;;;;;;;19.37;5.80;;;15.90;1.00;;;;;;4969513;28;20926;-67
2022/09/16 13:09:15;;;;;;;17.57;5.10;;;15.90;1.00;;;;;;4982507;28;20441;-67
2022/09/16 13:11:40;;;;;;;10.30;4.50;;;16.00;99.90;;;;;;4972315;28;20543;-67
2022/09/16 13:14:21;;;;;;;22.13;5.60;;;15.90;99.90;;;;;;4973081;28;20705;-68
2022/09/16 13:16:56;;;;;;;22.17;6.47;;;16.00;99.90;;;;;;4973290;28;20193;-65
2022/09/16 13:19:40;;;;;;;21.90;4.93;;;16.20;1.00;;;;;;4969001;28;21043;-65